Time,TemperatureF,DewpointF,PressureIn,WindDirection,WindDirectionDegrees,WindSpeedMPH,WindSpeedGustMPH,Humidity,HourlyPrecipIn,Conditions,Clouds,dailyrainin,SoftwareType,DateUTC
2013-06-18 00:00:00,61.0,55.5,29.65,SW,225,0.0,0.0,82,0.00,,,0.00,WUHU21623XXSP,2013-06-18 04:00:00,
2013-06-18 00:01:00,61.0,55.5,29.65,SW,225,0.0,0.0,82,0.00,,,0.00,WUHU21623XXSP,2013-06-18 04:01:00,
2013-06-18 00:06:00,61.0,55.5,29.65,SW,225,0.0,0.0,82,0.00,,,0.00,WUHU21623XXSP,2013-06-18 04:06:00,
2013-06-18 00:11:00,61.0,55.5,29.65,SW,225,0.0,0.0,82,0.00,,,0.00,WUHU21623XXSP,2013-06-18 04:11:00,
2013-06-18 00:16:00,61.0,55.5,29.65,SW,225,0.0,0.0,82,0.00,,,0.00,WUHU21623XXSP,2013-06-18 04:16:00,
2013-06-18 00:21:00,61.0,55.5,29.65,SW,225,0.0,0.0,82,0.00,,,0.00,WUHU21623XXSP,2013-06-18 04:21:00,
2013-06-18 00:26:00,60.6,55.1,29.65,SW,225,0.0,0.0,82,0.00,,,0.00,WUHU21623XXSP,2013-06-18 04:26:00,
2013-06-18 00:31:00,60.6,55.1,29.65,SW,225,0.0,0.0,82,0.00,,,0.00,WUHU21623XXSP,2013-06-18 04:31:00,
2013-06-18 00:36:00,60.6,55.1,29.65,SW,225,0.0,0.0,82,0.00,,,0.00,WUHU21623XXSP,2013-06-18 04:36:00,
2013-06-18 00:41:00,60.6,55.1,29.64,SW,225,0.0,0.0,82,0.00,,,0.00,WUHU21623XXSP,2013-06-18 04:41:00,
2013-06-18 00:46:00,60.4,55.0,29.64,SW,225,0.0,0.0,82,0.00,,,0.00,WUHU21623XXSP,2013-06-18 04:46:00,
2013-06-18 00:51:00,60.3,55.0,29.64,SW,225,0.0,0.0,82,0.00,,,0.00,WUHU21623XXSP,2013-06-18 04:51:00,
2013-06-18 00:56:00,60.1,54.6,29.64,SW,225,0.0,0.0,82,0.00,,,0.00,WUHU21623XXSP,2013-06-18 04:56:00,
2013-06-18 01:01:00,60.1,54.6,29.64,SW,225,0.0,0.0,82,0.00,,,0.00,WUHU21623XXSP,2013-06-18 05:01:00,
2013-06-18 01:06:00,59.9,54.4,29.65,SW,225,0.0,0.0,82,0.00,,,0.00,WUHU21623XXSP,2013-06-18 05:06:00,
2013-06-18 01:11:00,59.9,54.4,29.64,SW,225,0.0,0.0,82,0.00,,,0.00,WUHU21623XXSP,2013-06-18 05:11:00,
2013-06-18 01:16:00,59.7,54.2,29.64,SW,225,0.0,0.0,82,0.00,,,0.00,WUHU21623XXSP,2013-06-18 05:16:00,
2013-06-18 01:21:00,59.7,54.6,29.64,WSW,247,0.0,0.0,83,0.00,,,0.00,WUHU21623XXSP,2013-06-18 05:21:00,
2013-06-18 01:26:00,59.9,54.8,29.65,WSW,247,0.0,0.0,83,0.00,,,0.00,WUHU21623XXSP,2013-06-18 05:26:00,
2013-06-18 01:31:00,60.1,54.9,29.65,WSW,247,0.0,0.0,83,0.00,,,0.00,WUHU21623XXSP,2013-06-18 05:31:00,
2013-06-18 01:36:00,60.1,55.3,29.65,WSW,247,0.0,0.0,84,0.00,,,0.00,WUHU21623XXSP,2013-06-18 05:36:00,
2013-06-18 01:41:00,60.1,55.3,29.65,WSW,247,0.0,0.0,84,0.00,,,0.00,WUHU21623XXSP,2013-06-18 05:41:00,
2013-06-18 01:46:00,60.3,55.4,29.65,WSW,247,0.0,0.0,84,0.00,,,0.00,WUHU21623XXSP,2013-06-18 05:46:00,
2013-06-18 01:51:00,60.4,55.4,29.65,WSW,247,0.0,0.0,84,0.00,,,0.00,WUHU21623XXSP,2013-06-18 05:51:00,
2013-06-18 01:56:00,60.4,55.6,29.65,WSW,247,0.0,0.0,84,0.00,,,0.00,WUHU21623XXSP,2013-06-18 05:56:00,
2013-06-18 02:01:00,60.4,55.6,29.65,WSW,247,0.0,0.0,84,0.00,,,0.00,WUHU21623XXSP,2013-06-18 06:01:00,
2013-06-18 02:06:00,60.4,55.6,29.65,WSW,247,0.0,0.0,84,0.00,,,0.00,WUHU21623XXSP,2013-06-18 06:06:00,
2013-06-18 02:11:00,60.6,55.8,29.65,WSW,247,0.0,0.0,84,0.00,,,0.00,WUHU21623XXSP,2013-06-18 06:11:00,
2013-06-18 02:16:00,60.6,55.8,29.65,WSW,247,0.0,0.0,84,0.00,,,0.00,WUHU21623XXSP,2013-06-18 06:16:00,
2013-06-18 02:21:00,60.6,55.8,29.64,WSW,247,0.0,0.0,84,0.00,,,0.00,WUHU21623XXSP,2013-06-18 06:21:00,
2013-06-18 02:26:00,60.8,55.8,29.64,WSW,247,0.0,0.0,84,0.00,,,0.00,WUHU21623XXSP,2013-06-18 06:26:00,
2013-06-18 02:31:00,61.0,56.1,29.64,WSW,247,0.0,0.0,84,0.00,,,0.00,WUHU21623XXSP,2013-06-18 06:31:00,
2013-06-18 02:36:00,61.0,56.1,29.65,WSW,247,0.0,0.0,84,0.00,,,0.00,WUHU21623XXSP,2013-06-18 06:36:00,
2013-06-18 02:41:00,61.0,56.1,29.65,WSW,247,0.0,0.0,85,0.00,,,0.00,WUHU21623XXSP,2013-06-18 06:41:00,
2013-06-18 02:46:00,61.0,56.1,29.64,WSW,247,0.0,0.0,84,0.00,,,0.00,WUHU21623XXSP,2013-06-18 06:46:00,
2013-06-18 02:51:00,61.0,56.5,29.65,WSW,247,0.0,0.0,85,0.00,,,0.00,WUHU21623XXSP,2013-06-18 06:51:00,
2013-06-18 02:56:00,61.0,56.5,29.65,WSW,247,0.0,0.0,85,0.00,,,0.00,WUHU21623XXSP,2013-06-18 06:56:00,
2013-06-18 03:01:00,61.2,56.6,29.65,WSW,247,0.0,0.0,85,0.00,,,0.00,WUHU21623XXSP,2013-06-18 07:01:00,
2013-06-18 03:06:00,61.2,56.6,29.65,WSW,247,0.0,0.0,85,0.00,,,0.00,WUHU21623XXSP,2013-06-18 07:06:00,
2013-06-18 03:11:00,61.2,56.6,29.64,WSW,247,0.0,0.0,85,0.00,,,0.00,WUHU21623XXSP,2013-06-18 07:11:00,
2013-06-18 03:16:00,61.2,56.6,29.64,WSW,247,0.0,0.0,85,0.00,,,0.00,WUHU21623XXSP,2013-06-18 07:16:00,
2013-06-18 03:21:00,61.2,56.6,29.64,WSW,247,0.0,0.0,85,0.00,,,0.00,WUHU21623XXSP,2013-06-18 07:21:00,
2013-06-18 03:26:00,61.2,56.6,29.64,WSW,247,0.0,0.0,85,0.00,,,0.00,WUHU21623XXSP,2013-06-18 07:26:00,
2013-06-18 03:31:00,61.3,56.8,29.65,WSW,247,0.0,0.0,85,0.00,,,0.00,WUHU21623XXSP,2013-06-18 07:31:00,
2013-06-18 03:36:00,61.3,56.8,29.64,WSW,247,0.0,0.0,85,0.00,,,0.00,WUHU21623XXSP,2013-06-18 07:36:00,
2013-06-18 03:41:00,61.3,56.8,29.64,WSW,247,0.0,0.0,85,0.00,,,0.00,WUHU21623XXSP,2013-06-18 07:41:00,
2013-06-18 03:46:00,61.3,56.8,29.63,WSW,247,0.0,0.0,85,0.00,,,0.00,WUHU21623XXSP,2013-06-18 07:46:00,
2013-06-18 03:51:00,61.3,56.8,29.64,WSW,247,0.0,0.0,85,0.00,,,0.00,WUHU21623XXSP,2013-06-18 07:51:00,
2013-06-18 03:56:00,61.3,56.8,29.63,WSW,247,0.0,0.0,85,0.00,,,0.00,WUHU21623XXSP,2013-06-18 07:56:00,
2013-06-18 04:01:00,61.3,56.8,29.63,WSW,247,0.0,0.0,85,0.00,,,0.00,WUHU21623XXSP,2013-06-18 08:01:00,
2013-06-18 04:06:00,61.3,56.8,29.62,WSW,247,0.0,0.0,85,0.00,,,0.00,WUHU21623XXSP,2013-06-18 08:06:00,
2013-06-18 04:11:00,61.3,56.8,29.62,WSW,247,0.0,0.0,85,0.00,,,0.00,WUHU21623XXSP,2013-06-18 08:11:00,
2013-06-18 04:16:00,61.2,56.6,29.63,WSW,247,0.0,0.0,85,0.00,,,0.00,WUHU21623XXSP,2013-06-18 08:16:00,
2013-06-18 04:21:00,61.2,56.6,29.62,WSW,247,0.0,0.0,85,0.00,,,0.00,WUHU21623XXSP,2013-06-18 08:21:00,
2013-06-18 04:26:00,61.2,56.6,29.63,WSW,247,0.0,0.0,85,0.00,,,0.00,WUHU21623XXSP,2013-06-18 08:26:00,
2013-06-18 04:31:00,61.0,56.5,29.63,WSW,247,0.0,0.0,85,0.00,,,0.00,WUHU21623XXSP,2013-06-18 08:31:00,
2013-06-18 04:36:00,61.0,56.5,29.63,WSW,247,0.0,0.0,85,0.00,,,0.00,WUHU21623XXSP,2013-06-18 08:36:00,
2013-06-18 04:41:00,60.6,56.3,29.63,WSW,247,0.0,0.0,85,0.00,,,0.00,WUHU21623XXSP,2013-06-18 08:41:00,
2013-06-18 04:45:00,60.6,55.8,29.63,WSW,247,0.0,0.0,84,0.00,,,0.00,WUHU21623XXSP,2013-06-18 08:45:00,
2013-06-18 04:50:00,60.6,56.1,29.63,WSW,247,0.0,0.0,85,0.00,,,0.00,WUHU21623XXSP,2013-06-18 08:50:00,
2013-06-18 04:55:00,60.4,55.6,29.63,WSW,247,0.0,0.0,84,0.00,,,0.00,WUHU21623XXSP,2013-06-18 08:55:00,
2013-06-18 05:00:00,60.3,55.4,29.63,WSW,247,0.0,0.0,84,0.00,,,0.00,WUHU21623XXSP,2013-06-18 09:00:00,
2013-06-18 05:05:00,60.1,55.3,29.63,WSW,247,0.0,0.0,84,0.00,,,0.00,WUHU21623XXSP,2013-06-18 09:05:00,
2013-06-18 05:11:00,60.1,55.6,29.63,WSW,247,0.0,0.0,85,0.00,,,0.00,WUHU21623XXSP,2013-06-18 09:11:00,
2013-06-18 05:15:00,59.9,55.4,29.63,WSW,247,0.0,0.0,85,0.00,,,0.00,WUHU21623XXSP,2013-06-18 09:15:00,
2013-06-18 05:21:00,59.9,55.4,29.63,WSW,247,0.0,0.0,85,0.00,,,0.00,WUHU21623XXSP,2013-06-18 09:21:00,
2013-06-18 05:25:00,59.7,55.2,29.63,WSW,247,0.0,0.0,85,0.00,,,0.00,WUHU21623XXSP,2013-06-18 09:25:00,
2013-06-18 05:31:00,59.7,55.2,29.64,WSW,247,0.0,0.0,85,0.00,,,0.00,WUHU21623XXSP,2013-06-18 09:31:00,
2013-06-18 05:36:00,59.5,55.0,29.63,WSW,247,0.0,0.0,85,0.00,,,0.00,WUHU21623XXSP,2013-06-18 09:36:00,
2013-06-18 05:40:00,59.4,54.9,29.63,WSW,247,0.0,0.0,85,0.00,,,0.00,WUHU21623XXSP,2013-06-18 09:40:00,
2013-06-18 05:46:00,59.5,55.0,29.63,WSW,247,0.0,0.0,85,0.00,,,0.00,WUHU21623XXSP,2013-06-18 09:46:00,
2013-06-18 05:51:00,59.4,54.9,29.64,WSW,247,0.0,0.0,85,0.00,,,0.00,WUHU21623XXSP,2013-06-18 09:51:00,
2013-06-18 05:56:00,59.5,55.0,29.64,WSW,247,0.0,0.0,85,0.00,,,0.00,WUHU21623XXSP,2013-06-18 09:56:00,
2013-06-18 06:01:00,59.4,54.9,29.64,WSW,247,0.0,0.0,85,0.00,,,0.00,WUHU21623XXSP,2013-06-18 10:01:00,
2013-06-18 06:06:00,59.2,54.9,29.65,WSW,247,0.0,0.0,85,0.00,,,0.00,WUHU21623XXSP,2013-06-18 10:06:00,
2013-06-18 06:11:00,59.2,54.7,29.64,WSW,247,0.0,0.0,85,0.00,,,0.00,WUHU21623XXSP,2013-06-18 10:11:00,
2013-06-18 06:16:00,59.4,54.7,29.64,WSW,247,0.0,0.0,85,0.00,,,0.00,WUHU21623XXSP,2013-06-18 10:16:00,
2013-06-18 06:20:00,59.5,55.0,29.64,WSW,247,0.0,0.0,85,0.00,,,0.00,WUHU21623XXSP,2013-06-18 10:20:00,
2013-06-18 06:25:00,59.7,55.2,29.64,WSW,247,0.0,0.0,85,0.00,,,0.00,WUHU21623XXSP,2013-06-18 10:25:00,
2013-06-18 06:30:00,59.7,55.2,29.65,WSW,247,0.0,0.0,85,0.00,,,0.00,WUHU21623XXSP,2013-06-18 10:30:00,
2013-06-18 06:35:00,59.7,55.2,29.65,WSW,247,0.0,0.0,85,0.00,,,0.00,WUHU21623XXSP,2013-06-18 10:35:00,
2013-06-18 06:40:00,60.1,55.6,29.66,WSW,247,0.0,0.0,85,0.00,,,0.00,WUHU21623XXSP,2013-06-18 10:40:00,
2013-06-18 06:45:00,60.3,56.1,29.66,WSW,247,0.0,0.0,86,0.00,,,0.00,WUHU21623XXSP,2013-06-18 10:45:00,
2013-06-18 06:50:00,60.4,56.3,29.66,WSW,247,0.0,0.0,86,0.00,,,0.00,WUHU21623XXSP,2013-06-18 10:50:00,
2013-06-18 06:55:00,60.6,56.4,29.66,WSW,247,0.0,0.0,86,0.00,,,0.00,WUHU21623XXSP,2013-06-18 10:55:00,
2013-06-18 07:00:00,60.6,56.4,29.66,WSW,247,0.0,0.0,86,0.00,,,0.00,WUHU21623XXSP,2013-06-18 11:00:00,
2013-06-18 07:05:00,60.8,56.6,29.66,WSW,247,0.0,0.0,86,0.00,,,0.00,WUHU21623XXSP,2013-06-18 11:05:00,
2013-06-18 07:10:00,61.2,57.0,29.67,WSW,247,0.0,0.0,86,0.00,,,0.00,WUHU21623XXSP,2013-06-18 11:10:00,
2013-06-18 07:15:00,61.5,57.3,29.67,WSW,247,0.0,0.0,86,0.00,,,0.00,WUHU21623XXSP,2013-06-18 11:15:00,
2013-06-18 07:20:00,61.7,57.8,29.67,WSW,247,0.0,0.0,87,0.00,,,0.00,WUHU21623XXSP,2013-06-18 11:20:00,
2013-06-18 07:25:00,62.2,58.0,29.67,WSW,247,0.0,0.0,86,0.00,,,0.00,WUHU21623XXSP,2013-06-18 11:25:00,
2013-06-18 07:30:00,62.4,58.2,29.67,WSW,247,0.0,0.0,86,0.00,,,0.00,WUHU21623XXSP,2013-06-18 11:30:00,
2013-06-18 07:35:00,62.4,58.2,29.68,WSW,247,0.0,0.0,86,0.00,,,0.00,WUHU21623XXSP,2013-06-18 11:35:00,
2013-06-18 07:40:00,62.4,57.8,29.68,WSW,247,0.0,0.0,85,0.00,,,0.00,WUHU21623XXSP,2013-06-18 11:40:00,
2013-06-18 07:45:00,62.4,57.8,29.68,WSW,247,0.0,0.0,85,0.00,,,0.00,WUHU21623XXSP,2013-06-18 11:45:00,
2013-06-18 07:50:00,62.6,58.0,29.68,WSW,247,0.0,0.0,85,0.00,,,0.00,WUHU21623XXSP,2013-06-18 11:50:00,
2013-06-18 07:55:00,63.0,58.2,29.68,WSW,247,0.0,0.0,85,0.00,,,0.00,WUHU21623XXSP,2013-06-18 11:55:00,
2013-06-18 08:00:00,63.0,58.7,29.68,WSW,247,0.0,0.0,86,0.00,,,0.00,WUHU21623XXSP,2013-06-18 12:00:00,
2013-06-18 08:05:00,63.1,58.9,29.68,WSW,247,0.0,0.0,86,0.00,,,0.00,WUHU21623XXSP,2013-06-18 12:05:00,
2013-06-18 08:10:00,63.3,58.7,29.68,SSW,202,0.0,0.0,85,0.00,,,0.00,WUHU21623XXSP,2013-06-18 12:10:00,
2013-06-18 08:15:00,63.5,58.9,29.68,SSW,202,0.0,0.0,85,0.00,,,0.00,WUHU21623XXSP,2013-06-18 12:15:00,
2013-06-18 08:20:00,63.7,58.7,29.68,SSW,202,0.0,0.0,84,0.00,,,0.00,WUHU21623XXSP,2013-06-18 12:20:00,
2013-06-18 08:25:00,64.0,59.1,29.68,SSW,202,0.0,0.0,84,0.00,,,0.00,WUHU21623XXSP,2013-06-18 12:25:00,
2013-06-18 08:30:00,64.0,59.1,29.68,SSW,202,0.0,0.0,84,0.00,,,0.00,WUHU21623XXSP,2013-06-18 12:30:00,
2013-06-18 08:35:00,64.0,59.1,29.68,SSW,202,0.0,0.0,84,0.00,,,0.00,WUHU21623XXSP,2013-06-18 12:35:00,
2013-06-18 08:40:00,64.2,59.3,29.68,SSW,202,0.0,0.0,84,0.00,,,0.00,WUHU21623XXSP,2013-06-18 12:40:00,
2013-06-18 08:45:00,64.2,59.3,29.68,SSW,202,0.0,0.0,84,0.00,,,0.00,WUHU21623XXSP,2013-06-18 12:45:00,
2013-06-18 08:50:00,64.6,59.6,29.68,SSW,202,0.0,0.0,84,0.00,,,0.00,WUHU21623XXSP,2013-06-18 12:50:00,
2013-06-18 08:55:00,64.6,59.6,29.68,SSW,202,0.0,0.0,84,0.00,,,0.00,WUHU21623XXSP,2013-06-18 12:55:00,
2013-06-18 09:00:00,64.9,60.0,29.69,SSW,202,0.0,0.0,84,0.00,,,0.00,WUHU21623XXSP,2013-06-18 13:00:00,
2013-06-18 09:05:00,65.1,60.2,29.68,SSW,202,0.0,0.0,84,0.00,,,0.00,WUHU21623XXSP,2013-06-18 13:05:00,
2013-06-18 09:10:00,65.3,60.3,29.68,SSW,202,0.0,0.0,83,0.00,,,0.00,WUHU21623XXSP,2013-06-18 13:10:00,
2013-06-18 09:15:00,65.7,60.2,29.68,ESE,112,0.0,0.0,83,0.00,,,0.00,WUHU21623XXSP,2013-06-18 13:15:00,
2013-06-18 09:20:00,65.8,60.5,29.68,East,90,0.0,0.0,83,0.00,,,0.00,WUHU21623XXSP,2013-06-18 13:20:00,
2013-06-18 09:25:00,66.0,60.4,29.68,East,90,0.0,0.0,82,0.00,,,0.00,WUHU21623XXSP,2013-06-18 13:25:00,
2013-06-18 09:30:00,66.0,60.4,29.68,East,90,0.0,0.0,82,0.00,,,0.00,WUHU21623XXSP,2013-06-18 13:30:00,
2013-06-18 09:35:00,66.2,60.5,29.68,East,90,0.0,0.0,82,0.00,,,0.00,WUHU21623XXSP,2013-06-18 13:35:00,
2013-06-18 09:40:00,66.4,60.7,29.68,East,90,0.0,0.0,82,0.00,,,0.00,WUHU21623XXSP,2013-06-18 13:40:00,
2013-06-18 09:45:00,66.4,60.7,29.68,East,90,0.0,0.0,82,0.00,,,0.00,WUHU21623XXSP,2013-06-18 13:45:00,
2013-06-18 09:50:00,66.6,60.9,29.68,East,90,0.0,0.0,82,0.00,,,0.00,WUHU21623XXSP,2013-06-18 13:50:00,
2013-06-18 09:55:00,66.7,61.1,29.68,East,90,0.0,0.0,82,0.00,,,0.00,WUHU21623XXSP,2013-06-18 13:55:00,
2013-06-18 10:00:00,66.7,61.1,29.68,East,90,0.0,0.0,82,0.00,,,0.00,WUHU21623XXSP,2013-06-18 14:00:00,
2013-06-18 10:05:00,67.1,61.3,29.68,East,90,0.0,0.0,81,0.00,,,0.00,WUHU21623XXSP,2013-06-18 14:05:00,
2013-06-18 10:10:00,67.5,61.5,29.68,East,90,0.0,0.0,81,0.00,,,0.00,WUHU21623XXSP,2013-06-18 14:10:00,
2013-06-18 10:15:00,67.6,61.7,29.68,East,90,0.0,0.0,81,0.00,,,0.00,WUHU21623XXSP,2013-06-18 14:15:00,
2013-06-18 10:20:00,67.6,61.3,29.68,ESE,112,0.0,0.0,80,0.00,,,0.00,WUHU21623XXSP,2013-06-18 14:20:00,
2013-06-18 10:25:00,67.8,61.8,29.68,ESE,112,0.0,0.0,81,0.00,,,0.00,WUHU21623XXSP,2013-06-18 14:25:00,
2013-06-18 10:30:00,67.8,61.8,29.68,East,90,0.0,0.0,81,0.00,,,0.00,WUHU21623XXSP,2013-06-18 14:30:00,
2013-06-18 10:35:00,67.8,61.5,29.68,East,90,0.0,0.0,80,0.00,,,0.00,WUHU21623XXSP,2013-06-18 14:35:00,
2013-06-18 10:40:00,68.2,61.9,29.68,East,90,0.0,0.0,80,0.00,,,0.00,WUHU21623XXSP,2013-06-18 14:40:00,
2013-06-18 10:45:00,68.4,61.6,29.68,SE,135,0.0,0.0,79,0.00,,,0.00,WUHU21623XXSP,2013-06-18 14:45:00,
2013-06-18 10:50:00,68.7,61.8,29.68,SE,135,0.0,0.0,79,0.00,,,0.00,WUHU21623XXSP,2013-06-18 14:50:00,
2013-06-18 10:55:00,69.3,62.1,29.68,ESE,112,0.0,0.0,78,0.00,,,0.00,WUHU21623XXSP,2013-06-18 14:55:00,
2013-06-18 11:00:00,69.6,62.2,29.67,ESE,112,0.0,0.0,77,0.00,,,0.00,WUHU21623XXSP,2013-06-18 15:00:00,
2013-06-18 11:05:00,69.6,62.0,29.68,NNE,22,0.0,0.0,77,0.00,,,0.00,WUHU21623XXSP,2013-06-18 15:05:00,
2013-06-18 11:10:00,70.2,62.5,29.67,NNW,337,0.0,0.0,77,0.00,,,0.00,WUHU21623XXSP,2013-06-18 15:10:00,
2013-06-18 11:15:00,70.5,62.9,29.67,NNW,337,0.0,0.0,77,0.00,,,0.00,WUHU21623XXSP,2013-06-18 15:15:00,
2013-06-18 11:20:00,70.7,62.7,29.67,WNW,292,0.0,0.0,76,0.00,,,0.00,WUHU21623XXSP,2013-06-18 15:20:00,
2013-06-18 11:25:00,71.2,63.2,29.67,NW,315,0.0,0.0,76,0.00,,,0.00,WUHU21623XXSP,2013-06-18 15:25:00,
2013-06-18 11:30:00,71.8,63.4,29.67,NNE,22,0.0,0.0,75,0.00,,,0.00,WUHU21623XXSP,2013-06-18 15:30:00,
2013-06-18 11:35:00,71.8,63.0,29.67,NNE,22,0.0,0.0,74,0.00,,,0.00,WUHU21623XXSP,2013-06-18 15:35:00,
2013-06-18 11:40:00,72.1,63.8,29.67,NNE,22,0.0,0.0,75,0.00,,,0.00,WUHU21623XXSP,2013-06-18 15:40:00,
2013-06-18 11:45:00,72.3,64.0,29.66,NNE,22,0.0,0.0,75,0.00,,,0.00,WUHU21623XXSP,2013-06-18 15:45:00,
2013-06-18 11:50:00,72.9,63.9,29.66,NNE,22,0.0,0.0,73,0.00,,,0.00,WUHU21623XXSP,2013-06-18 15:50:00,
2013-06-18 11:55:00,73.0,63.9,29.66,NNE,22,0.0,0.0,73,0.00,,,0.00,WUHU21623XXSP,2013-06-18 15:55:00,
2013-06-18 12:00:00,73.2,64.1,29.66,NNE,22,0.0,0.0,73,0.00,,,0.00,WUHU21623XXSP,2013-06-18 16:00:00,
2013-06-18 12:05:00,73.6,64.1,29.66,NNE,22,0.0,0.0,72,0.00,,,0.00,WUHU21623XXSP,2013-06-18 16:05:00,
2013-06-18 12:10:00,73.9,64.4,29.66,NNE,22,0.0,0.0,72,0.00,,,0.00,WUHU21623XXSP,2013-06-18 16:10:00,
2013-06-18 12:15:00,74.1,64.2,29.65,ESE,112,0.0,0.0,71,0.00,,,0.00,WUHU21623XXSP,2013-06-18 16:15:00,
2013-06-18 12:20:00,74.5,64.5,29.65,SE,135,1.1,1.1,71,0.00,,,0.00,WUHU21623XXSP,2013-06-18 16:20:00,
2013-06-18 12:25:00,74.8,64.4,29.65,SE,135,0.0,1.1,70,0.00,,,0.00,WUHU21623XXSP,2013-06-18 16:25:00,
2013-06-18 12:30:00,74.8,64.4,29.65,SE,135,0.0,0.0,70,0.00,,,0.00,WUHU21623XXSP,2013-06-18 16:30:00,
2013-06-18 12:35:00,74.8,64.4,29.64,SE,135,0.0,0.0,70,0.00,,,0.00,WUHU21623XXSP,2013-06-18 16:35:00,
2013-06-18 12:40:00,75.0,64.1,29.64,SE,135,0.0,0.0,69,0.00,,,0.00,WUHU21623XXSP,2013-06-18 16:40:00,
2013-06-18 12:45:00,75.4,64.5,29.64,NE,45,0.0,0.0,69,0.00,,,0.00,WUHU21623XXSP,2013-06-18 16:45:00,
2013-06-18 12:50:00,75.6,64.2,29.64,NE,45,0.0,0.0,68,0.00,,,0.00,WUHU21623XXSP,2013-06-18 16:50:00,
2013-06-18 12:55:00,75.6,64.7,29.64,NE,45,0.0,0.0,69,0.00,,,0.00,WUHU21623XXSP,2013-06-18 16:55:00,
2013-06-18 13:00:00,75.7,64.4,29.64,NE,45,0.0,0.0,68,0.00,,,0.00,WUHU21623XXSP,2013-06-18 17:00:00,
2013-06-18 13:05:00,76.3,64.9,29.64,NNE,22,0.0,0.0,68,0.00,,,0.00,WUHU21623XXSP,2013-06-18 17:05:00,
2013-06-18 13:10:00,76.8,65.0,29.64,NNE,22,0.0,0.0,67,0.00,,,0.00,WUHU21623XXSP,2013-06-18 17:10:00,
2013-06-18 13:15:00,76.8,65.0,29.64,NNE,22,0.0,0.0,67,0.00,,,0.00,WUHU21623XXSP,2013-06-18 17:15:00,
2013-06-18 13:20:00,76.6,64.8,29.64,NNE,22,0.0,0.0,67,0.00,,,0.00,WUHU21623XXSP,2013-06-18 17:20:00,
2013-06-18 13:25:00,75.9,64.1,29.64,NNE,22,0.0,0.0,67,0.00,,,0.00,WUHU21623XXSP,2013-06-18 17:25:00,
2013-06-18 13:30:00,75.6,63.8,29.64,NNE,22,0.0,0.0,67,0.00,,,0.00,WUHU21623XXSP,2013-06-18 17:30:00,
2013-06-18 13:35:00,75.0,63.3,29.64,NNE,22,0.0,0.0,67,0.00,,,0.00,WUHU21623XXSP,2013-06-18 17:35:00,
2013-06-18 13:40:00,74.5,63.2,29.64,NNE,22,0.0,0.0,68,0.00,,,0.00,WUHU21623XXSP,2013-06-18 17:40:00,
2013-06-18 13:45:00,74.1,62.9,29.64,NNE,22,0.0,0.0,68,0.00,,,0.00,WUHU21623XXSP,2013-06-18 17:45:00,
2013-06-18 13:50:00,73.9,63.2,29.63,NNE,22,0.0,0.0,69,0.00,,,0.00,WUHU21623XXSP,2013-06-18 17:50:00,
2013-06-18 13:55:00,73.2,62.5,29.63,NNE,22,0.0,0.0,69,0.00,,,0.00,WUHU21623XXSP,2013-06-18 17:55:00,
2013-06-18 14:00:00,72.9,62.2,29.63,NNE,22,0.0,0.0,69,0.00,,,0.00,WUHU21623XXSP,2013-06-18 18:00:00,
2013-06-18 14:05:00,71.8,62.3,29.63,NNE,22,0.0,0.0,71,0.00,,,0.00,WUHU21623XXSP,2013-06-18 18:05:00,
2013-06-18 14:10:00,70.3,61.8,29.61,NNE,22,0.0,0.0,74,0.00,,,0.00,WUHU21623XXSP,2013-06-18 18:10:00,
2013-06-18 14:15:00,69.6,61.3,29.62,WSW,247,0.0,0.0,75,0.00,,,0.00,WUHU21623XXSP,2013-06-18 18:15:00,
2013-06-18 14:20:00,68.7,60.5,29.63,North,0,0.0,0.0,75,0.00,,,0.00,WUHU21623XXSP,2013-06-18 18:20:00,
2013-06-18 14:25:00,67.6,59.8,29.63,WSW,247,0.0,0.0,76,0.00,,,0.00,WUHU21623XXSP,2013-06-18 18:25:00,
2013-06-18 14:30:00,67.1,59.7,29.64,WSW,247,0.0,0.0,77,0.00,,,0.00,WUHU21623XXSP,2013-06-18 18:30:00,
2013-06-18 14:35:00,66.7,59.7,29.64,SW,225,0.0,0.0,78,0.00,,,0.00,WUHU21623XXSP,2013-06-18 18:35:00,
2013-06-18 14:40:00,66.0,59.0,29.65,SE,135,0.0,0.0,78,0.00,,,0.00,WUHU21623XXSP,2013-06-18 18:40:00,
2013-06-18 14:45:00,65.7,59.0,29.66,SE,135,0.0,0.0,79,0.00,,,0.00,WUHU21623XXSP,2013-06-18 18:45:00,
2013-06-18 14:50:00,65.3,58.6,29.66,SE,135,0.0,0.0,79,0.00,,,0.00,WUHU21623XXSP,2013-06-18 18:50:00,
2013-06-18 14:55:00,65.1,58.8,29.66,SE,135,0.0,0.0,80,0.00,,,0.00,WUHU21623XXSP,2013-06-18 18:55:00,
2013-06-18 15:00:00,64.9,58.6,29.66,SE,135,0.0,0.0,80,0.00,,,0.00,WUHU21623XXSP,2013-06-18 19:00:00,
2013-06-18 15:05:00,64.6,58.3,29.66,SE,135,0.0,0.0,80,0.00,,,0.00,WUHU21623XXSP,2013-06-18 19:05:00,
2013-06-18 15:10:00,64.0,57.7,29.66,NE,45,0.0,0.0,80,0.00,,,0.00,WUHU21623XXSP,2013-06-18 19:10:00,
2013-06-18 15:15:00,63.7,57.4,29.65,NE,45,0.0,0.0,80,0.00,,,0.00,WUHU21623XXSP,2013-06-18 19:15:00,
2013-06-18 15:20:00,63.5,57.2,29.65,NE,45,0.0,0.0,80,0.00,,,0.00,WUHU21623XXSP,2013-06-18 19:20:00,
2013-06-18 15:25:00,63.1,57.2,29.66,NE,45,0.0,0.0,81,0.00,,,0.00,WUHU21623XXSP,2013-06-18 19:25:00,
2013-06-18 15:30:00,63.0,57.0,29.66,NE,45,0.0,0.0,81,0.00,,,0.00,WUHU21623XXSP,2013-06-18 19:30:00,
2013-06-18 15:35:00,62.8,56.8,29.66,NE,45,0.0,0.0,81,0.00,,,0.00,WUHU21623XXSP,2013-06-18 19:35:00,
2013-06-18 15:40:00,62.8,56.8,29.66,NE,45,0.0,0.0,81,0.00,,,0.00,WUHU21623XXSP,2013-06-18 19:40:00,
2013-06-18 15:45:00,62.8,57.2,29.67,NE,45,0.0,0.0,82,0.00,,,0.00,WUHU21623XXSP,2013-06-18 19:45:00,
2013-06-18 15:50:00,62.8,57.2,29.66,NE,45,0.0,0.0,82,0.00,,,0.00,WUHU21623XXSP,2013-06-18 19:50:00,
2013-06-18 15:55:00,62.8,57.2,29.67,NE,45,0.0,0.0,82,0.00,,,0.00,WUHU21623XXSP,2013-06-18 19:55:00,
2013-06-18 16:00:00,62.6,57.0,29.67,NNE,22,0.0,0.0,82,0.00,,,0.00,WUHU21623XXSP,2013-06-18 20:00:00,
2013-06-18 16:05:00,62.4,56.8,29.67,NNE,22,0.0,0.0,82,0.00,,,0.00,WUHU21623XXSP,2013-06-18 20:05:00,
2013-06-18 16:10:00,62.4,57.1,29.68,NNE,22,0.0,0.0,83,0.00,,,0.00,WUHU21623XXSP,2013-06-18 20:10:00,
2013-06-18 16:15:00,62.2,57.0,29.68,NNE,22,0.0,0.0,83,0.00,,,0.00,WUHU21623XXSP,2013-06-18 20:15:00,
2013-06-18 16:20:00,62.1,56.8,29.69,NNE,22,0.0,0.0,83,0.00,,,0.00,WUHU21623XXSP,2013-06-18 20:20:00,
2013-06-18 16:25:00,61.9,56.6,29.68,NNE,22,0.0,0.0,83,0.00,,,0.00,WUHU21623XXSP,2013-06-18 20:25:00,
2013-06-18 16:30:00,61.9,56.6,29.68,NNE,22,0.0,0.0,83,0.00,,,0.00,WUHU21623XXSP,2013-06-18 20:30:00,
2013-06-18 16:35:00,61.7,56.5,29.68,NNE,22,0.0,0.0,83,0.00,,,0.00,WUHU21623XXSP,2013-06-18 20:35:00,
2013-06-18 16:40:00,61.7,56.5,29.68,NNE,22,0.0,0.0,83,0.00,,,0.00,WUHU21623XXSP,2013-06-18 20:40:00,
2013-06-18 16:45:00,61.5,56.3,29.68,NNE,22,0.0,0.0,83,0.00,,,0.00,WUHU21623XXSP,2013-06-18 20:45:00,
2013-06-18 16:50:00,61.5,56.3,29.68,NNE,22,0.0,0.0,83,0.00,,,0.00,WUHU21623XXSP,2013-06-18 20:50:00,
2013-06-18 16:55:00,61.5,56.3,29.68,NNE,22,0.0,0.0,83,0.00,,,0.00,WUHU21623XXSP,2013-06-18 20:55:00,
2013-06-18 17:00:00,61.3,56.1,29.68,NNE,22,0.0,0.0,83,0.00,,,0.00,WUHU21623XXSP,2013-06-18 21:00:00,
2013-06-18 17:05:00,61.3,56.1,29.67,NNE,22,0.0,0.0,83,0.00,,,0.00,WUHU21623XXSP,2013-06-18 21:05:00,
2013-06-18 17:10:00,61.2,56.0,29.67,NNE,22,0.0,0.0,83,0.00,,,0.00,WUHU21623XXSP,2013-06-18 21:10:00,
2013-06-18 17:15:00,61.2,56.0,29.67,NNE,22,0.0,0.0,83,0.00,,,0.00,WUHU21623XXSP,2013-06-18 21:15:00,
2013-06-18 17:20:00,61.0,55.8,29.66,NNE,22,0.0,0.0,83,0.00,,,0.00,WUHU21623XXSP,2013-06-18 21:20:00,
2013-06-18 17:25:00,61.0,55.8,29.66,NNE,22,0.0,0.0,83,0.00,,,0.00,WUHU21623XXSP,2013-06-18 21:25:00,
2013-06-18 17:30:00,61.0,55.8,29.66,NNE,22,0.0,0.0,83,0.00,,,0.00,WUHU21623XXSP,2013-06-18 21:30:00,
2013-06-18 17:35:00,61.0,55.8,29.66,NNE,22,0.0,0.0,83,0.00,,,0.00,WUHU21623XXSP,2013-06-18 21:35:00,
2013-06-18 17:40:00,61.0,56.1,29.67,NNE,22,0.0,0.0,84,0.00,,,0.00,WUHU21623XXSP,2013-06-18 21:40:00,
2013-06-18 17:45:00,61.2,56.3,29.68,NNE,22,0.0,0.0,84,0.00,,,0.00,WUHU21623XXSP,2013-06-18 21:45:00,
2013-06-18 17:50:00,61.2,56.3,29.67,NNE,22,0.0,0.0,84,0.00,,,0.00,WUHU21623XXSP,2013-06-18 21:50:00,
2013-06-18 17:55:00,61.3,56.5,29.67,NNE,22,0.0,0.0,84,0.00,,,0.00,WUHU21623XXSP,2013-06-18 21:55:00,
2013-06-18 18:00:00,61.3,56.5,29.67,NNE,22,0.0,0.0,84,0.00,,,0.00,WUHU21623XXSP,2013-06-18 22:00:00,
2013-06-18 18:05:00,61.3,56.5,29.66,NNE,22,0.0,0.0,84,0.00,,,0.00,WUHU21623XXSP,2013-06-18 22:05:00,
2013-06-18 18:10:00,61.2,56.3,29.67,NNE,22,0.0,0.0,84,0.00,,,0.00,WUHU21623XXSP,2013-06-18 22:10:00,
2013-06-18 18:15:00,61.0,56.1,29.67,NNE,22,0.0,0.0,84,0.00,,,0.00,WUHU21623XXSP,2013-06-18 22:15:00,
2013-06-18 18:20:00,61.2,56.3,29.67,NNE,22,0.0,0.0,84,0.00,,,0.00,WUHU21623XXSP,2013-06-18 22:20:00,
2013-06-18 18:25:00,61.3,56.5,29.67,NNE,22,0.0,0.0,84,0.00,,,0.00,WUHU21623XXSP,2013-06-18 22:25:00,
2013-06-18 18:30:00,61.3,56.5,29.67,NNE,22,0.0,0.0,84,0.00,,,0.00,WUHU21623XXSP,2013-06-18 22:30:00,
2013-06-18 18:35:00,61.3,56.5,29.67,NNE,22,0.0,0.0,84,0.00,,,0.00,WUHU21623XXSP,2013-06-18 22:35:00,
2013-06-18 18:40:00,61.3,56.5,29.67,NNE,22,0.0,0.0,84,0.00,,,0.00,WUHU21623XXSP,2013-06-18 22:40:00,
2013-06-18 18:45:00,61.3,56.5,29.66,NNE,22,0.0,0.0,85,0.00,,,0.00,WUHU21623XXSP,2013-06-18 22:45:00,
2013-06-18 18:50:00,61.3,56.8,29.66,NNE,22,0.0,0.0,85,0.00,,,0.00,WUHU21623XXSP,2013-06-18 22:50:00,
2013-06-18 18:55:00,61.3,56.8,29.66,NE,45,0.0,0.0,85,0.00,,,0.00,WUHU21623XXSP,2013-06-18 22:55:00,
2013-06-18 19:00:00,61.3,56.6,29.66,NE,45,0.0,0.0,85,0.00,,,0.00,WUHU21623XXSP,2013-06-18 23:00:00,
2013-06-18 19:05:00,61.2,56.6,29.66,NE,45,0.0,0.0,85,0.00,,,0.00,WUHU21623XXSP,2013-06-18 23:05:00,
2013-06-18 19:10:00,61.2,56.6,29.66,NE,45,0.0,0.0,85,0.00,,,0.00,WUHU21623XXSP,2013-06-18 23:10:00,
2013-06-18 19:15:00,61.2,56.6,29.66,NE,45,0.0,0.0,85,0.00,,,0.00,WUHU21623XXSP,2013-06-18 23:15:00,
2013-06-18 19:20:00,61.2,56.6,29.66,NE,45,0.0,0.0,85,0.00,,,0.00,WUHU21623XXSP,2013-06-18 23:20:00,
2013-06-18 19:25:00,61.2,56.6,29.66,NE,45,0.0,0.0,85,0.00,,,0.00,WUHU21623XXSP,2013-06-18 23:25:00,
2013-06-18 19:30:00,61.2,56.5,29.66,NE,45,0.0,0.0,85,0.00,,,0.00,WUHU21623XXSP,2013-06-18 23:30:00,
2013-06-18 19:35:00,61.0,56.5,29.66,NE,45,0.0,0.0,85,0.00,,,0.00,WUHU21623XXSP,2013-06-18 23:35:00,
2013-06-18 19:40:00,61.0,56.5,29.66,NE,45,0.0,0.0,85,0.00,,,0.00,WUHU21623XXSP,2013-06-18 23:40:00,
2013-06-18 19:45:00,61.2,56.5,29.66,NE,45,0.0,0.0,85,0.00,,,0.00,WUHU21623XXSP,2013-06-18 23:45:00,
2013-06-18 19:50:00,61.2,56.5,29.66,NE,45,0.0,0.0,85,0.00,,,0.00,WUHU21623XXSP,2013-06-18 23:50:00,
2013-06-18 19:55:00,61.0,56.6,29.66,NE,45,0.0,0.0,85,0.00,,,0.00,WUHU21623XXSP,2013-06-18 23:55:00,
2013-06-18 20:00:00,61.0,56.5,29.66,NE,45,0.0,0.0,85,0.00,,,0.00,WUHU21623XXSP,2013-06-19 00:00:00,
2013-06-18 20:05:00,61.0,56.5,29.66,NE,45,0.0,0.0,85,0.00,,,0.00,WUHU21623XXSP,2013-06-19 00:05:00,
2013-06-18 20:10:00,61.0,56.5,29.66,NE,45,0.0,0.0,85,0.00,,,0.00,WUHU21623XXSP,2013-06-19 00:10:00,
2013-06-18 20:15:00,61.0,56.5,29.66,NE,45,0.0,0.0,85,0.00,,,0.00,WUHU21623XXSP,2013-06-19 00:15:00,
2013-06-18 20:20:00,61.0,56.5,29.65,NE,45,0.0,0.0,85,0.00,,,0.00,WUHU21623XXSP,2013-06-19 00:20:00,
2013-06-18 20:25:00,60.8,56.3,29.65,NE,45,0.0,0.0,85,0.00,,,0.00,WUHU21623XXSP,2013-06-19 00:25:00,
2013-06-18 20:30:00,60.8,56.1,29.66,NE,45,0.0,0.0,85,0.00,,,0.00,WUHU21623XXSP,2013-06-19 00:30:00,
2013-06-18 20:35:00,60.6,56.1,29.66,NE,45,0.0,0.0,85,0.00,,,0.00,WUHU21623XXSP,2013-06-19 00:35:00,
2013-06-18 20:40:00,60.6,56.1,29.66,NE,45,0.0,0.0,85,0.00,,,0.00,WUHU21623XXSP,2013-06-19 00:40:00,
2013-06-18 20:45:00,60.6,56.1,29.66,NE,45,0.0,0.0,85,0.00,,,0.00,WUHU21623XXSP,2013-06-19 00:45:00,
2013-06-18 20:50:00,60.6,56.1,29.66,NE,45,0.0,0.0,85,0.00,,,0.00,WUHU21623XXSP,2013-06-19 00:50:00,
2013-06-18 20:55:00,60.6,56.1,29.66,NE,45,0.0,0.0,85,0.00,,,0.00,WUHU21623XXSP,2013-06-19 00:55:00,
2013-06-18 21:00:00,60.6,56.1,29.66,NE,45,0.0,0.0,85,0.00,,,0.00,WUHU21623XXSP,2013-06-19 01:00:00,
2013-06-18 21:05:00,60.6,56.1,29.67,NE,45,0.0,0.0,85,0.00,,,0.00,WUHU21623XXSP,2013-06-19 01:05:00,
2013-06-18 21:10:00,60.6,56.1,29.67,NE,45,0.0,0.0,85,0.00,,,0.00,WUHU21623XXSP,2013-06-19 01:10:00,
2013-06-18 21:15:00,60.6,56.1,29.67,NE,45,0.0,0.0,85,0.00,,,0.00,WUHU21623XXSP,2013-06-19 01:15:00,
2013-06-18 21:20:00,60.6,56.1,29.67,NE,45,0.0,0.0,85,0.00,,,0.00,WUHU21623XXSP,2013-06-19 01:20:00,
2013-06-18 21:25:00,60.4,55.9,29.68,NE,45,0.0,0.0,85,0.00,,,0.00,WUHU21623XXSP,2013-06-19 01:25:00,
2013-06-18 21:30:00,60.4,55.9,29.68,NE,45,0.0,0.0,85,0.00,,,0.00,WUHU21623XXSP,2013-06-19 01:30:00,
2013-06-18 21:35:00,60.4,55.9,29.67,NE,45,0.0,0.0,85,0.00,,,0.00,WUHU21623XXSP,2013-06-19 01:35:00,
2013-06-18 21:40:00,60.4,55.9,29.68,NE,45,0.0,0.0,85,0.00,,,0.00,WUHU21623XXSP,2013-06-19 01:40:00,
2013-06-18 21:45:00,60.4,55.9,29.68,NE,45,0.0,0.0,85,0.00,,,0.00,WUHU21623XXSP,2013-06-19 01:45:00,
2013-06-18 21:50:00,60.4,55.9,29.68,NE,45,0.0,0.0,85,0.00,,,0.00,WUHU21623XXSP,2013-06-19 01:50:00,
2013-06-18 21:55:00,60.4,55.9,29.68,NE,45,0.0,0.0,85,0.00,,,0.00,WUHU21623XXSP,2013-06-19 01:55:00,
2013-06-18 22:00:00,60.3,55.8,29.68,NE,45,0.0,0.0,85,0.00,,,0.00,WUHU21623XXSP,2013-06-19 02:00:00,
2013-06-18 22:05:00,60.1,55.6,29.68,NE,45,0.0,0.0,85,0.00,,,0.00,WUHU21623XXSP,2013-06-19 02:05:00,
2013-06-18 22:10:00,60.1,55.6,29.68,NE,45,0.0,0.0,85,0.00,,,0.00,WUHU21623XXSP,2013-06-19 02:10:00,
2013-06-18 22:15:00,60.1,55.6,29.68,NE,45,0.0,0.0,85,0.00,,,0.00,WUHU21623XXSP,2013-06-19 02:15:00,
2013-06-18 22:20:00,59.9,55.4,29.68,NE,45,0.0,0.0,85,0.00,,,0.00,WUHU21623XXSP,2013-06-19 02:20:00,
2013-06-18 22:25:00,59.9,55.7,29.68,NE,45,0.0,0.0,86,0.00,,,0.00,WUHU21623XXSP,2013-06-19 02:25:00,
2013-06-18 22:30:00,59.9,55.7,29.68,NE,45,0.0,0.0,86,0.00,,,0.00,WUHU21623XXSP,2013-06-19 02:30:00,
2013-06-18 22:35:00,59.7,55.5,29.67,NE,45,0.0,0.0,86,0.00,,,0.00,WUHU21623XXSP,2013-06-19 02:35:00,
2013-06-18 22:40:00,59.7,55.5,29.67,NE,45,0.0,0.0,86,0.00,,,0.00,WUHU21623XXSP,2013-06-19 02:40:00,
2013-06-18 22:45:00,59.7,55.5,29.67,NE,45,0.0,0.0,86,0.00,,,0.00,WUHU21623XXSP,2013-06-19 02:45:00,
2013-06-18 22:50:00,59.7,55.5,29.67,NE,45,0.0,0.0,86,0.00,,,0.00,WUHU21623XXSP,2013-06-19 02:50:00,
2013-06-18 22:55:00,59.5,55.4,29.67,NE,45,0.0,0.0,86,0.00,,,0.00,WUHU21623XXSP,2013-06-19 02:55:00,
2013-06-18 22:59:00,59.5,55.4,29.67,NE,45,0.0,0.0,86,0.00,,,0.00,WUHU21623XXSP,2013-06-19 02:59:00,
2013-06-18 23:04:00,59.5,55.4,29.67,NE,45,0.0,0.0,86,0.00,,,0.00,WUHU21623XXSP,2013-06-19 03:04:00,
2013-06-18 23:10:00,59.5,55.4,29.67,NE,45,0.0,0.0,86,0.00,,,0.00,WUHU21623XXSP,2013-06-19 03:10:00,
2013-06-18 23:14:00,59.5,55.4,29.67,NE,45,0.0,0.0,86,0.00,,,0.00,WUHU21623XXSP,2013-06-19 03:14:00,
2013-06-18 23:20:00,59.4,55.2,29.67,NE,45,0.0,0.0,86,0.00,,,0.00,WUHU21623XXSP,2013-06-19 03:20:00,
2013-06-18 23:25:00,59.4,55.2,29.67,NE,45,0.0,0.0,86,0.00,,,0.00,WUHU21623XXSP,2013-06-19 03:25:00,
2013-06-18 23:30:00,59.4,55.2,29.67,NE,45,0.0,0.0,86,0.00,,,0.00,WUHU21623XXSP,2013-06-19 03:30:00,
2013-06-18 23:35:00,59.4,55.2,29.68,NE,45,0.0,0.0,86,0.00,,,0.00,WUHU21623XXSP,2013-06-19 03:35:00,
2013-06-18 23:40:00,59.2,55.0,29.67,NE,45,0.0,0.0,86,0.00,,,0.00,WUHU21623XXSP,2013-06-19 03:40:00,
2013-06-18 23:45:00,59.2,55.0,29.67,NE,45,0.0,0.0,86,0.00,,,0.00,WUHU21623XXSP,2013-06-19 03:45:00,
2013-06-18 23:50:00,58.8,54.8,29.68,NE,45,0.0,0.0,86,0.00,,,0.00,WUHU21623XXSP,2013-06-19 03:50:00,
2013-06-18 23:54:00,58.8,54.6,29.68,NE,45,0.0,0.0,86,0.00,,,0.00,WUHU21623XXSP,2013-06-19 03:54:00,